createdAt,value
2023-05-14T00:00:49.640Z,6.70
2023-05-14T00:02:03.921Z,6.70
2023-05-14T00:03:06.887Z,6.30
2023-05-14T00:04:10.122Z,5.80
2023-05-14T00:05:13.033Z,5.70
2023-05-14T00:06:16.167Z,5.90
2023-05-14T00:07:18.942Z,5.50
2023-05-14T00:08:21.733Z,5.30
2023-05-14T00:09:24.761Z,5.20
2023-05-14T00:10:28.161Z,5.60
2023-05-14T00:11:30.932Z,5.30
2023-05-14T00:12:33.954Z,5.00
2023-05-14T00:13:36.885Z,5.30
2023-05-14T00:14:39.672Z,6.50
2023-05-14T00:15:42.614Z,6.70
2023-05-14T00:16:45.369Z,7.20
2023-05-14T00:17:48.208Z,8.10
2023-05-14T00:18:51.128Z,7.10
2023-05-14T00:19:54.019Z,6.30
2023-05-14T00:20:56.725Z,6.20
2023-05-14T00:21:59.495Z,6.10
2023-05-14T00:23:02.232Z,6.50
2023-05-14T00:24:05.474Z,5.90
2023-05-14T00:25:08.969Z,6.70
2023-05-14T00:26:11.772Z,6.00
2023-05-14T00:27:14.936Z,8.30
2023-05-14T00:28:17.724Z,6.40
2023-05-14T00:29:20.689Z,7.00
2023-05-14T00:30:24.061Z,7.10
2023-05-14T00:31:27.092Z,6.90
2023-05-14T00:32:29.946Z,6.00
2023-05-14T00:33:33.066Z,6.20
2023-05-14T00:34:36.683Z,6.50
2023-05-14T00:35:39.627Z,6.90
2023-05-14T00:36:42.413Z,7.00
2023-05-14T00:37:45.265Z,6.50
2023-05-14T00:38:48.017Z,7.00
2023-05-14T00:39:50.941Z,6.30
2023-05-14T00:40:53.981Z,6.40
2023-05-14T00:41:56.777Z,6.20
2023-05-14T00:42:59.901Z,5.90
2023-05-14T00:44:02.621Z,6.30
2023-05-14T00:45:06.793Z,7.40
2023-05-14T00:46:09.759Z,6.10
2023-05-14T00:47:12.967Z,5.70
2023-05-14T00:48:15.860Z,5.40
2023-05-14T00:49:19.138Z,5.80
2023-05-14T00:50:22.875Z,6.40
2023-05-14T00:51:25.970Z,6.00
2023-05-14T00:52:28.913Z,6.10
2023-05-14T00:53:31.724Z,7.60
2023-05-14T00:54:35.336Z,6.20
2023-05-14T00:55:39.003Z,6.50
2023-05-14T00:56:45.064Z,6.50
2023-05-14T00:57:49.230Z,6.00
2023-05-14T00:58:52.056Z,5.80
2023-05-14T00:59:55.424Z,6.00
2023-05-14T01:00:58.230Z,6.10
2023-05-14T01:02:01.548Z,6.30
2023-05-14T01:03:05.419Z,6.10
2023-05-14T01:04:09.980Z,6.30
2023-05-14T01:05:13.044Z,5.80
2023-05-14T01:06:23.386Z,5.70
2023-05-14T01:07:59.535Z,6.50
2023-05-14T01:09:13.073Z,5.60
2023-05-14T01:10:24.492Z,6.00
2023-05-14T01:11:41.299Z,6.00
2023-05-14T01:12:48.760Z,5.90
2023-05-14T01:14:06.616Z,6.20
2023-05-14T01:15:13.896Z,6.30
2023-05-14T01:16:20.040Z,6.30
2023-05-14T01:17:27.125Z,6.20
2023-05-14T01:18:32.554Z,6.00
2023-05-14T01:19:45.525Z,5.90
2023-05-14T01:20:52.238Z,6.50
2023-05-14T01:21:55.074Z,6.30
2023-05-14T01:22:58.165Z,6.40
2023-05-14T01:24:00.952Z,6.10
2023-05-14T01:25:05.566Z,5.90
2023-05-14T01:26:08.515Z,6.30
2023-05-14T01:27:11.590Z,6.10
2023-05-14T01:28:24.510Z,5.80
2023-05-14T01:29:29.081Z,5.80
2023-05-14T01:32:11.042Z,5.70
2023-05-14T01:33:16.379Z,5.60
2023-05-14T01:34:22.900Z,5.70
2023-05-14T01:35:28.434Z,6.40
2023-05-14T01:36:31.798Z,5.80
2023-05-14T01:37:36.468Z,5.90
2023-05-14T01:38:39.828Z,5.60
2023-05-14T01:39:43.188Z,5.70
2023-05-14T01:40:47.570Z,5.80
2023-05-14T01:41:52.534Z,5.90
2023-05-14T01:42:56.631Z,5.30
2023-05-14T01:43:59.492Z,6.30
2023-05-14T01:45:02.752Z,5.90
2023-05-14T01:46:05.636Z,5.90
2023-05-14T01:47:08.442Z,5.60
2023-05-14T01:48:11.394Z,5.80
2023-05-14T01:49:14.233Z,5.70
2023-05-14T01:50:17.660Z,5.60
2023-05-14T01:51:20.595Z,6.00
2023-05-14T01:52:23.509Z,5.70
2023-05-14T01:53:26.446Z,6.40
2023-05-14T01:54:29.179Z,5.80
2023-05-14T01:55:31.937Z,6.10
2023-05-14T01:56:34.713Z,6.10
2023-05-14T01:57:37.473Z,6.70
2023-05-14T01:58:40.333Z,5.90
2023-05-14T01:59:43.170Z,5.50
2023-05-14T02:00:46.000Z,6.00
2023-05-14T02:01:48.810Z,5.90
2023-05-14T02:02:51.724Z,5.70
2023-05-14T02:03:54.598Z,6.00
2023-05-14T02:04:58.079Z,6.00
2023-05-14T02:06:00.900Z,6.00
2023-05-14T02:07:04.014Z,6.20
2023-05-14T02:08:06.873Z,5.80
2023-05-14T02:09:09.720Z,5.90
2023-05-14T02:10:12.687Z,5.90
2023-05-14T02:11:15.586Z,6.00
2023-05-14T02:12:18.379Z,6.20
2023-05-14T02:13:21.422Z,5.50
2023-05-14T02:14:24.289Z,6.20
2023-05-14T02:15:27.155Z,6.40
2023-05-14T02:16:30.240Z,6.10
2023-05-14T02:17:33.125Z,5.80
2023-05-14T02:18:35.950Z,5.90
2023-05-14T02:19:38.801Z,6.10
2023-05-14T02:20:41.623Z,6.50
2023-05-14T02:21:44.566Z,6.10
2023-05-14T02:22:48.312Z,5.90
2023-05-14T02:23:51.227Z,5.90
2023-05-14T02:24:54.076Z,5.70
2023-05-14T02:25:56.809Z,6.70
2023-05-14T02:27:01.078Z,5.90
2023-05-14T02:28:04.092Z,5.80
2023-05-14T02:29:06.855Z,6.00
2023-05-14T02:30:10.659Z,6.20
2023-05-14T02:31:14.950Z,6.20
2023-05-14T02:32:18.034Z,6.80
2023-05-14T02:33:21.412Z,6.70
2023-05-14T02:34:24.613Z,5.90
2023-05-14T02:35:27.488Z,6.40
2023-05-14T02:36:30.716Z,6.00
2023-05-14T02:37:34.802Z,6.60
2023-05-14T02:38:37.659Z,6.20
2023-05-14T02:39:40.475Z,6.40
2023-05-14T02:40:43.234Z,6.00
2023-05-14T02:41:46.060Z,6.30
2023-05-14T02:42:49.006Z,6.20
2023-05-14T02:43:52.672Z,5.90
2023-05-14T02:44:55.739Z,5.90
2023-05-14T02:45:58.600Z,6.00
2023-05-14T02:47:01.510Z,6.20
2023-05-14T02:48:04.774Z,6.50
2023-05-14T02:49:07.736Z,6.20
2023-05-14T02:50:11.218Z,6.70
2023-05-14T02:51:14.035Z,6.00
2023-05-14T02:52:16.783Z,6.40
2023-05-14T02:53:19.601Z,6.30
2023-05-14T02:54:22.439Z,6.30
2023-05-14T02:55:26.498Z,6.70
2023-05-14T02:56:29.301Z,6.30
2023-05-14T02:57:32.075Z,6.60
2023-05-14T02:58:34.879Z,6.60
2023-05-14T02:59:38.042Z,6.70
2023-05-14T03:00:41.560Z,6.90
2023-05-14T03:01:45.023Z,6.90
2023-05-14T03:02:48.328Z,6.40
2023-05-14T03:03:51.766Z,7.20
2023-05-14T03:04:55.189Z,6.40
2023-05-14T03:05:57.963Z,6.10
2023-05-14T03:07:00.938Z,6.30
2023-05-14T03:08:03.795Z,5.90
2023-05-14T03:09:07.500Z,6.00
2023-05-14T03:10:10.735Z,6.70
2023-05-14T03:11:13.544Z,6.40
2023-05-14T03:12:16.466Z,6.60
2023-05-14T03:13:20.735Z,6.40
2023-05-14T03:14:23.585Z,6.60
2023-05-14T03:15:26.480Z,6.10
2023-05-14T03:16:29.463Z,6.50
2023-05-14T03:17:32.592Z,6.70
2023-05-14T03:18:36.676Z,6.30
2023-05-14T03:19:39.571Z,6.70
2023-05-14T03:20:43.436Z,6.80
2023-05-14T03:21:46.858Z,6.50
2023-05-14T03:22:49.746Z,6.30
2023-05-14T03:23:53.626Z,6.50
2023-05-14T03:24:56.408Z,7.10
2023-05-14T03:25:59.198Z,6.90
2023-05-14T03:27:01.998Z,6.00
2023-05-14T03:28:05.024Z,6.70
2023-05-14T03:29:07.849Z,6.40
2023-05-14T03:30:11.800Z,6.90
2023-05-14T03:31:16.414Z,6.50
2023-05-14T03:32:19.565Z,6.80
2023-05-14T03:33:22.853Z,6.80
2023-05-14T03:34:25.780Z,6.30
2023-05-14T03:35:28.534Z,6.50
2023-05-14T03:36:32.048Z,6.20
2023-05-14T03:37:34.893Z,6.70
2023-05-14T03:38:37.741Z,6.80
2023-05-14T03:39:40.557Z,6.50
2023-05-14T03:40:44.921Z,6.70
2023-05-14T03:41:48.281Z,6.70
2023-05-14T03:42:51.091Z,6.70
2023-05-14T03:43:54.122Z,6.60
2023-05-14T03:44:56.885Z,7.00
2023-05-14T03:46:00.003Z,6.70
2023-05-14T03:47:03.288Z,6.70
2023-05-14T03:48:06.776Z,8.00
2023-05-14T03:49:09.795Z,8.40
2023-05-14T03:50:12.613Z,10.10
2023-05-14T03:51:15.578Z,10.30
2023-05-14T03:52:18.424Z,10.40
2023-05-14T03:53:21.290Z,11.50
2023-05-14T03:54:24.189Z,11.40
2023-05-14T03:55:26.995Z,10.60
2023-05-14T03:56:29.742Z,9.80
2023-05-14T03:57:32.529Z,9.00
2023-05-14T03:58:35.362Z,10.30
2023-05-14T03:59:38.310Z,8.40
2023-05-14T04:00:44.208Z,9.00
2023-05-14T04:01:47.119Z,8.40
2023-05-14T04:02:50.057Z,8.70
2023-05-14T04:03:53.436Z,8.20
2023-05-14T04:04:56.666Z,7.60
2023-05-14T04:05:59.524Z,7.50
2023-05-14T04:07:02.398Z,8.10
2023-05-14T04:08:05.877Z,9.20
2023-05-14T04:09:10.687Z,9.30
2023-05-14T04:10:14.023Z,9.30
2023-05-14T04:11:16.898Z,8.60
2023-05-14T04:12:19.728Z,9.30
2023-05-14T04:13:22.867Z,8.50
2023-05-14T04:14:25.583Z,9.80
2023-05-14T04:15:28.706Z,10.40
2023-05-14T04:16:31.594Z,8.60
2023-05-14T04:17:35.096Z,8.70
2023-05-14T04:18:38.055Z,9.00
2023-05-14T04:19:40.841Z,8.80
2023-05-14T04:20:43.685Z,8.00
2023-05-14T04:21:46.562Z,9.00
2023-05-14T04:22:49.285Z,9.30
2023-05-14T04:23:52.036Z,8.80
2023-05-14T04:24:54.731Z,9.20
2023-05-14T04:25:58.360Z,9.00
2023-05-14T04:27:01.225Z,8.70
2023-05-14T04:28:04.091Z,9.00
2023-05-14T04:29:06.865Z,8.80
2023-05-14T04:30:10.191Z,8.60
2023-05-14T04:31:13.099Z,8.30
2023-05-14T04:32:15.998Z,8.60
2023-05-14T04:33:18.783Z,8.60
2023-05-14T04:34:21.754Z,8.70
2023-05-14T04:35:25.308Z,8.70
2023-05-14T04:36:28.116Z,8.50
2023-05-14T04:37:31.699Z,8.30
2023-05-14T04:38:34.707Z,8.30
2023-05-14T04:39:37.939Z,8.00
2023-05-14T04:40:43.858Z,7.90
2023-05-14T04:41:46.641Z,7.80
2023-05-14T04:42:49.402Z,7.90
2023-05-14T04:43:56.632Z,7.50
2023-05-14T04:44:59.473Z,7.70
2023-05-14T04:46:02.443Z,7.10
2023-05-14T04:47:06.885Z,7.50
2023-05-14T04:48:09.730Z,7.90
2023-05-14T04:49:12.761Z,7.20
2023-05-14T04:50:15.575Z,7.40
2023-05-14T04:51:18.510Z,8.30
2023-05-14T04:52:21.343Z,6.90
2023-05-14T04:53:24.460Z,7.30
2023-05-14T04:54:27.329Z,6.60
2023-05-14T04:55:30.350Z,6.90
2023-05-14T04:56:33.156Z,6.50
2023-05-14T04:57:35.869Z,6.90
2023-05-14T04:58:38.605Z,6.40
2023-05-14T04:59:41.436Z,6.50
2023-05-14T05:00:44.506Z,6.60
2023-05-14T05:01:47.461Z,6.40
2023-05-14T05:02:50.729Z,6.60
2023-05-14T05:03:53.579Z,6.60
2023-05-14T05:04:56.315Z,6.20
2023-05-14T05:05:59.315Z,6.60
2023-05-14T05:07:02.087Z,7.10
2023-05-14T05:08:04.847Z,5.90
2023-05-14T05:09:08.814Z,6.90
2023-05-14T05:10:11.811Z,6.30
2023-05-14T05:11:14.777Z,6.90
2023-05-14T05:12:17.571Z,6.70
2023-05-14T05:13:20.363Z,6.90
2023-05-14T05:14:23.169Z,7.00
2023-05-14T05:15:26.741Z,6.50
2023-05-14T05:16:29.912Z,7.40
2023-05-14T05:17:32.989Z,7.30
2023-05-14T05:18:35.924Z,7.00
2023-05-14T05:19:43.805Z,6.70
2023-05-14T05:20:47.412Z,7.10
2023-05-14T05:21:51.176Z,6.90
2023-05-14T05:22:54.029Z,7.40
2023-05-14T05:23:56.851Z,6.70
2023-05-14T05:24:59.906Z,7.20
2023-05-14T05:26:02.620Z,7.00
2023-05-14T05:27:06.107Z,6.90
2023-05-14T05:28:08.952Z,7.00
2023-05-14T05:29:11.872Z,6.20
2023-05-14T05:30:14.647Z,7.00
2023-05-14T05:31:19.685Z,7.00
2023-05-14T05:32:23.237Z,8.30
2023-05-14T05:33:26.080Z,7.10
2023-05-14T05:34:28.915Z,7.10
2023-05-14T05:35:31.615Z,6.90
2023-05-14T05:36:34.489Z,6.50
2023-05-14T05:37:37.216Z,6.10
2023-05-14T05:38:39.970Z,7.00
2023-05-14T05:39:42.830Z,8.60
2023-05-14T05:40:45.549Z,8.70
2023-05-14T05:41:48.360Z,8.70
2023-05-14T05:42:51.152Z,7.00
2023-05-14T05:43:53.994Z,9.10
2023-05-14T05:44:56.849Z,7.00
2023-05-14T05:46:01.620Z,7.30
2023-05-14T05:47:04.839Z,6.80
2023-05-14T05:48:07.828Z,7.00
2023-05-14T05:49:10.620Z,6.40
2023-05-14T05:50:13.556Z,6.70
2023-05-14T05:51:16.439Z,6.90
2023-05-14T05:52:19.511Z,6.80
2023-05-14T05:53:22.556Z,6.30
2023-05-14T05:54:25.712Z,6.70
2023-05-14T05:55:29.672Z,7.30
2023-05-14T05:56:32.497Z,7.30
2023-05-14T05:57:35.341Z,6.60
2023-05-14T05:58:38.787Z,9.00
2023-05-14T05:59:41.577Z,7.10
2023-05-14T06:00:44.652Z,6.70
2023-05-14T06:01:48.211Z,8.00
2023-05-14T06:02:51.117Z,7.60
2023-05-14T06:03:53.897Z,7.90
2023-05-14T06:04:56.766Z,6.60
2023-05-14T06:05:59.675Z,6.50
2023-05-14T06:07:02.516Z,6.50
2023-05-14T06:08:05.795Z,6.50
2023-05-14T06:09:09.227Z,6.60
2023-05-14T06:10:12.022Z,6.40
2023-05-14T06:11:15.415Z,6.30
2023-05-14T06:12:18.208Z,6.60
2023-05-14T06:13:20.990Z,6.90
2023-05-14T06:14:23.770Z,6.10
2023-05-14T06:15:26.607Z,6.00
2023-05-14T06:16:31.664Z,6.70
2023-05-14T06:17:34.549Z,6.30
2023-05-14T06:18:37.447Z,6.00
2023-05-14T06:19:40.372Z,6.00
2023-05-14T06:20:43.287Z,6.00
2023-05-14T06:21:46.125Z,6.30
2023-05-14T06:22:48.976Z,6.90
2023-05-14T06:23:51.732Z,6.20
2023-05-14T06:24:54.740Z,6.50
2023-05-14T06:25:57.609Z,6.30
2023-05-14T06:27:00.380Z,7.00
2023-05-14T06:28:03.328Z,6.70
2023-05-14T06:29:06.178Z,6.80
2023-05-14T06:30:10.443Z,5.90
2023-05-14T06:31:13.791Z,5.90
2023-05-14T06:32:16.924Z,6.20
2023-05-14T06:33:23.415Z,6.70
2023-05-14T06:34:26.347Z,6.80
2023-05-14T06:35:29.363Z,6.70
2023-05-14T06:36:32.185Z,5.90
2023-05-14T06:37:34.956Z,6.00
2023-05-14T06:38:37.893Z,6.40
2023-05-14T06:39:46.517Z,6.40
2023-05-14T06:40:49.390Z,5.80
2023-05-14T06:41:52.170Z,6.10
2023-05-14T06:42:55.079Z,6.00
2023-05-14T06:43:57.873Z,6.10
2023-05-14T06:45:00.759Z,6.60
2023-05-14T06:46:03.617Z,6.20
2023-05-14T06:47:08.619Z,6.50
2023-05-14T06:48:11.774Z,7.10
2023-05-14T06:49:14.895Z,6.60
2023-05-14T06:50:18.065Z,6.30
2023-05-14T06:51:20.968Z,5.80
2023-05-14T06:52:23.772Z,6.20
2023-05-14T06:53:26.730Z,7.60
2023-05-14T06:54:30.159Z,6.90
2023-05-14T06:55:32.989Z,6.60
2023-05-14T06:56:35.810Z,7.40
2023-05-14T06:57:40.644Z,7.90
2023-05-14T06:58:43.752Z,7.20
2023-05-14T06:59:46.629Z,7.80
2023-05-14T07:00:49.525Z,7.10
2023-05-14T07:01:52.401Z,7.50
2023-05-14T07:02:57.671Z,8.40
2023-05-14T07:04:00.738Z,8.30
2023-05-14T07:05:03.630Z,8.90
2023-05-14T07:06:06.851Z,8.10
2023-05-14T07:07:13.527Z,9.00
2023-05-14T07:08:16.315Z,8.10
2023-05-14T07:09:19.123Z,8.50
2023-05-14T07:10:22.376Z,8.50
2023-05-14T07:11:25.529Z,10.50
2023-05-14T07:12:28.343Z,9.70
2023-05-14T07:13:31.166Z,9.00
2023-05-14T07:14:34.394Z,9.50
2023-05-14T07:15:37.214Z,19.30
2023-05-14T07:16:41.678Z,12.30
2023-05-14T07:17:45.214Z,8.70
2023-05-14T07:18:48.053Z,7.70
2023-05-14T07:19:51.374Z,7.60
2023-05-14T07:20:54.115Z,6.60
2023-05-14T07:21:57.899Z,6.80
2023-05-14T07:23:00.797Z,6.80
2023-05-14T07:24:04.036Z,7.20
2023-05-14T07:25:07.769Z,6.70
2023-05-14T07:26:10.642Z,6.30
2023-05-14T07:27:13.442Z,6.40
2023-05-14T07:28:16.273Z,6.80
2023-05-14T07:29:19.005Z,6.00
2023-05-14T07:30:21.873Z,6.90
2023-05-14T07:31:25.054Z,6.70
2023-05-14T07:32:27.895Z,6.40
2023-05-14T07:33:30.982Z,7.00
2023-05-14T07:34:33.903Z,6.30
2023-05-14T07:35:36.739Z,6.70
2023-05-14T07:36:39.886Z,7.40
2023-05-14T07:37:42.967Z,7.80
2023-05-14T07:38:45.982Z,7.50
2023-05-14T07:39:49.283Z,7.10
2023-05-14T07:40:52.300Z,8.10
2023-05-14T07:41:55.374Z,8.00
2023-05-14T07:42:58.192Z,9.00
2023-05-14T07:44:01.277Z,7.70
2023-05-14T07:45:04.765Z,8.10
2023-05-14T07:46:07.653Z,8.00
2023-05-14T07:47:11.072Z,8.30
2023-05-14T07:48:14.457Z,7.40
2023-05-14T07:49:17.457Z,7.80
2023-05-14T07:50:20.868Z,7.60
2023-05-14T07:51:24.121Z,7.60
2023-05-14T07:52:26.965Z,7.50
2023-05-14T07:53:29.813Z,6.70
2023-05-14T07:54:32.695Z,8.20
2023-05-14T07:55:35.528Z,7.70
2023-05-14T07:56:38.305Z,7.40
2023-05-14T07:57:41.267Z,7.30
2023-05-14T07:58:44.098Z,7.90
2023-05-14T07:59:48.457Z,7.70
2023-05-14T08:00:51.583Z,8.10
2023-05-14T08:01:54.536Z,7.60
2023-05-14T08:02:57.635Z,7.50
2023-05-14T08:04:01.075Z,7.50
2023-05-14T08:05:04.703Z,7.20
2023-05-14T08:06:07.587Z,7.80
2023-05-14T08:07:11.224Z,8.40
2023-05-14T08:08:13.989Z,8.40
2023-05-14T08:09:17.053Z,8.60
2023-05-14T08:10:19.846Z,8.30
2023-05-14T08:11:22.934Z,8.60
2023-05-14T08:12:26.730Z,8.20
2023-05-14T08:13:29.519Z,8.80
2023-05-14T08:14:32.472Z,8.70
2023-05-14T08:15:35.553Z,8.60
2023-05-14T08:16:38.871Z,8.90
2023-05-14T08:17:41.833Z,10.30
2023-05-14T08:18:44.704Z,11.20
2023-05-14T08:19:47.738Z,12.70
2023-05-14T08:20:51.377Z,11.80
2023-05-14T08:21:54.570Z,11.90
2023-05-14T08:23:00.434Z,11.00
2023-05-14T08:24:03.624Z,9.50
2023-05-14T08:25:07.770Z,9.10
2023-05-14T08:26:11.141Z,8.60
2023-05-14T08:27:13.973Z,9.10
2023-05-14T08:28:16.734Z,9.20
2023-05-14T08:29:19.587Z,10.50
2023-05-14T08:30:23.040Z,8.40
2023-05-14T08:31:26.180Z,8.80
2023-05-14T08:32:29.671Z,7.50
2023-05-14T08:33:32.593Z,7.30
2023-05-14T08:34:35.361Z,7.60
2023-05-14T08:35:38.147Z,7.20
2023-05-14T08:36:40.877Z,8.50
2023-05-14T08:37:43.691Z,7.10
2023-05-14T08:38:46.400Z,7.50
2023-05-14T08:39:49.184Z,7.50
2023-05-14T08:40:58.793Z,8.50
2023-05-14T08:42:06.230Z,7.00
2023-05-14T08:43:11.649Z,7.50
2023-05-14T08:44:18.726Z,8.10
2023-05-14T08:45:26.044Z,7.60
2023-05-14T08:46:31.738Z,8.20
2023-05-14T08:47:34.851Z,7.80
2023-05-14T08:48:40.718Z,8.40
2023-05-14T08:49:47.225Z,8.20
2023-05-14T08:50:50.336Z,8.10
2023-05-14T08:51:53.476Z,8.10
2023-05-14T08:52:56.261Z,7.80
2023-05-14T08:54:02.233Z,7.90
2023-05-14T08:55:06.591Z,8.00
2023-05-14T08:56:09.823Z,8.40
2023-05-14T08:57:13.134Z,8.30
2023-05-14T08:58:15.987Z,8.40
2023-05-14T08:59:19.309Z,7.40
2023-05-14T09:00:23.102Z,7.20
2023-05-14T09:01:26.305Z,7.50
2023-05-14T09:02:31.336Z,8.30
2023-05-14T09:03:35.975Z,7.90
2023-05-14T09:04:39.813Z,8.10
2023-05-14T09:05:43.092Z,8.30
2023-05-14T09:06:49.445Z,8.10
2023-05-14T09:07:52.369Z,7.90
2023-05-14T09:08:56.138Z,7.80
2023-05-14T09:09:59.581Z,7.70
2023-05-14T09:11:02.863Z,8.10
2023-05-14T09:12:06.299Z,7.80
2023-05-14T09:13:10.225Z,7.80
2023-05-14T09:14:13.088Z,7.60
2023-05-14T09:15:16.142Z,7.70
2023-05-14T09:16:20.688Z,7.10
2023-05-14T09:17:26.819Z,7.70
2023-05-14T09:18:29.736Z,7.70
2023-05-14T09:19:32.862Z,7.90
2023-05-14T09:20:35.942Z,7.60
2023-05-14T09:21:38.748Z,7.60
2023-05-14T09:22:42.037Z,10.30
2023-05-14T09:23:45.376Z,9.10
2023-05-14T09:25:02.741Z,8.50
2023-05-14T09:26:06.053Z,7.60
2023-05-14T09:27:10.565Z,8.30
2023-05-14T09:28:17.281Z,7.70
2023-05-14T09:29:20.337Z,7.70
2023-05-14T09:30:24.905Z,7.80
2023-05-14T09:31:32.118Z,7.30
2023-05-14T09:32:40.322Z,7.60
2023-05-14T09:33:43.819Z,8.20
2023-05-14T09:34:46.583Z,7.90
2023-05-14T09:35:49.363Z,8.60
2023-05-14T09:37:03.649Z,7.20
2023-05-14T09:38:06.444Z,8.00
2023-05-14T09:39:09.735Z,8.00
2023-05-14T09:40:13.932Z,10.60
2023-05-14T09:41:17.007Z,8.20
2023-05-14T09:42:20.114Z,8.10
2023-05-14T09:43:22.900Z,8.70
2023-05-14T09:44:26.201Z,8.60
2023-05-14T09:45:29.352Z,8.20
2023-05-14T09:46:32.189Z,8.20
2023-05-14T09:47:36.042Z,8.10
2023-05-14T09:48:38.978Z,7.50
2023-05-14T09:49:41.952Z,8.80
2023-05-14T09:50:46.606Z,8.50
2023-05-14T09:51:50.411Z,8.10
2023-05-14T09:52:55.746Z,9.10
2023-05-14T09:53:58.821Z,9.80
2023-05-14T09:55:02.404Z,8.20
2023-05-14T09:56:05.552Z,7.90
2023-05-14T09:57:08.436Z,8.10
2023-05-14T09:58:11.660Z,8.10
2023-05-14T09:59:14.994Z,7.60
2023-05-14T10:00:18.090Z,8.10
2023-05-14T10:01:22.470Z,8.20
2023-05-14T10:02:27.401Z,8.00
2023-05-14T10:03:30.594Z,8.20
2023-05-14T10:04:34.200Z,7.90
2023-05-14T10:05:39.998Z,8.10
2023-05-14T10:06:46.547Z,8.10
2023-05-14T10:07:52.294Z,9.40
2023-05-14T10:08:57.032Z,9.80
2023-05-14T10:10:03.099Z,8.40
2023-05-14T10:11:13.255Z,9.00
2023-05-14T10:13:39.248Z,7.30
2023-05-14T10:14:49.834Z,7.80
2023-05-14T10:16:00.684Z,8.40
2023-05-14T10:17:06.016Z,8.20
2023-05-14T10:18:12.479Z,7.80
2023-05-14T10:19:17.877Z,7.80
2023-05-14T10:20:22.847Z,9.00
2023-05-14T10:21:28.616Z,8.80
2023-05-14T10:22:34.953Z,8.70
2023-05-14T10:23:38.646Z,9.10
2023-05-14T10:24:41.972Z,8.00
2023-05-14T10:25:45.615Z,9.50
2023-05-14T10:26:48.969Z,8.70
2023-05-14T10:27:51.863Z,8.70
2023-05-14T10:28:55.999Z,8.50
2023-05-14T10:29:58.772Z,9.10
2023-05-14T10:31:01.837Z,8.30
2023-05-14T10:32:06.807Z,9.70
2023-05-14T10:33:13.284Z,8.00
2023-05-14T10:34:37.959Z,9.40
2023-05-14T10:36:00.810Z,10.20
2023-05-14T10:37:16.369Z,11.00
2023-05-14T10:38:23.271Z,11.20
2023-05-14T10:39:47.587Z,10.40
2023-05-14T10:40:53.500Z,9.80
2023-05-14T10:41:56.982Z,9.20
2023-05-14T10:42:59.874Z,8.20
2023-05-14T10:44:09.493Z,7.90
2023-05-14T10:45:14.841Z,7.60
2023-05-14T10:46:18.015Z,7.70
2023-05-14T10:47:21.974Z,6.80
2023-05-14T10:48:26.004Z,6.60
2023-05-14T10:49:42.424Z,6.40
2023-05-14T10:50:48.284Z,7.10
2023-05-14T10:51:53.444Z,7.20
2023-05-14T10:52:57.135Z,7.10
2023-05-14T10:54:01.643Z,6.30
2023-05-14T10:55:10.235Z,7.30
2023-05-14T10:56:14.608Z,6.40
2023-05-14T10:57:19.006Z,6.50
2023-05-14T10:58:22.341Z,6.20
2023-05-14T10:59:28.448Z,7.10
2023-05-14T11:00:34.145Z,6.20
2023-05-14T11:01:36.954Z,6.20
2023-05-14T11:02:41.255Z,5.80
2023-05-14T11:03:46.213Z,6.40
2023-05-14T11:04:59.443Z,6.10
2023-05-14T11:06:03.736Z,6.70
2023-05-14T11:07:06.695Z,6.80
2023-05-14T11:08:10.548Z,6.60
2023-05-14T11:09:17.557Z,6.20
2023-05-14T11:10:22.054Z,6.70
2023-05-14T11:11:26.222Z,6.30
2023-05-14T11:12:29.639Z,6.90
2023-05-14T11:13:34.418Z,6.60
2023-05-14T11:14:37.217Z,7.10
2023-05-14T11:15:46.997Z,7.20
2023-05-14T11:16:50.470Z,7.20
2023-05-14T11:17:54.405Z,6.80
2023-05-14T11:19:04.864Z,7.20
2023-05-14T11:20:09.789Z,6.70
2023-05-14T11:21:13.097Z,7.40
2023-05-14T11:22:15.943Z,7.00
2023-05-14T11:23:18.872Z,7.00
2023-05-14T11:24:21.637Z,7.80
2023-05-14T11:25:25.899Z,7.30
2023-05-14T11:26:28.797Z,7.30
2023-05-14T11:27:34.395Z,7.70
2023-05-14T11:28:38.778Z,8.00
2023-05-14T11:29:46.525Z,7.20
2023-05-14T11:30:50.722Z,7.10
2023-05-14T11:31:54.490Z,7.20
2023-05-14T11:32:58.758Z,7.70
2023-05-14T11:34:05.026Z,7.10
2023-05-14T11:35:08.397Z,6.40
2023-05-14T11:36:12.564Z,7.30
2023-05-14T11:37:16.546Z,8.20
2023-05-14T11:38:21.180Z,7.50
2023-05-14T11:39:23.972Z,6.60
2023-05-14T11:40:26.955Z,7.00
2023-05-14T11:41:31.061Z,7.60
2023-05-14T11:42:33.841Z,8.40
2023-05-14T11:43:36.751Z,8.60
2023-05-14T11:44:39.632Z,8.70
2023-05-14T11:45:42.444Z,8.20
2023-05-14T11:46:54.692Z,8.80
2023-05-14T11:47:57.572Z,8.70
2023-05-14T11:49:00.369Z,8.60
2023-05-14T11:50:03.733Z,8.50
2023-05-14T11:51:06.877Z,8.60
2023-05-14T11:52:11.744Z,7.90
2023-05-14T11:53:25.808Z,8.10
2023-05-14T11:54:29.391Z,8.20
2023-05-14T11:55:35.984Z,7.30
2023-05-14T11:56:38.762Z,6.80
2023-05-14T11:57:42.187Z,7.10
2023-05-14T11:58:55.812Z,7.30
2023-05-14T11:59:58.710Z,7.60
2023-05-14T12:01:01.690Z,8.00
2023-05-14T12:02:05.627Z,7.40
2023-05-14T12:03:10.172Z,7.40
2023-05-14T12:04:14.246Z,7.30
2023-05-14T12:05:17.203Z,7.00
2023-05-14T12:06:19.959Z,7.50
2023-05-14T12:07:22.802Z,8.80
2023-05-14T12:08:30.680Z,7.80
2023-05-14T12:09:36.849Z,8.20
2023-05-14T12:10:42.773Z,7.20
2023-05-14T12:11:46.606Z,7.40
2023-05-14T12:12:49.860Z,7.60
2023-05-14T12:13:53.140Z,7.80
2023-05-14T12:14:55.995Z,8.60
2023-05-14T12:16:02.257Z,8.20
2023-05-14T12:17:15.867Z,8.00
2023-05-14T12:18:24.724Z,7.90
2023-05-14T12:19:30.359Z,7.70
2023-05-14T12:20:33.184Z,8.10
2023-05-14T12:21:36.635Z,7.60
2023-05-14T12:22:42.037Z,8.20
2023-05-14T12:23:44.779Z,8.10
2023-05-14T12:24:58.095Z,8.00
2023-05-14T12:26:08.981Z,8.50
2023-05-14T12:27:12.041Z,7.60
2023-05-14T12:28:16.118Z,9.30
2023-05-14T12:29:19.538Z,8.30
2023-05-14T12:30:22.362Z,7.70
2023-05-14T12:31:32.377Z,9.00
2023-05-14T12:33:38.871Z,7.30
2023-05-14T12:34:41.644Z,7.70
2023-05-14T12:35:44.361Z,7.10
2023-05-14T12:36:47.220Z,7.80
2023-05-14T12:37:50.012Z,7.30
2023-05-14T12:39:01.509Z,7.70
2023-05-14T12:40:09.110Z,7.90
2023-05-14T12:41:11.965Z,7.50
2023-05-14T12:42:15.575Z,7.10
2023-05-14T12:43:18.301Z,7.70
2023-05-14T12:44:22.599Z,6.70
2023-05-14T12:45:25.699Z,6.90
2023-05-14T12:46:28.829Z,7.00
2023-05-14T12:47:32.323Z,6.80
2023-05-14T12:48:35.168Z,6.80
2023-05-14T12:49:38.194Z,6.50
2023-05-14T12:50:40.985Z,7.70
2023-05-14T12:51:44.050Z,6.20
2023-05-14T12:52:46.876Z,6.10
2023-05-14T12:53:51.558Z,6.30
2023-05-14T12:54:54.465Z,6.60
2023-05-14T12:55:57.204Z,6.60
2023-05-14T12:57:00.268Z,6.60
2023-05-14T12:58:03.104Z,6.40
2023-05-14T12:59:05.913Z,7.20
2023-05-14T13:00:14.226Z,8.70
2023-05-14T13:01:17.379Z,6.00
2023-05-14T13:02:20.657Z,6.60
2023-05-14T13:03:24.006Z,6.10
2023-05-14T13:04:26.875Z,6.00
2023-05-14T13:05:29.770Z,6.00
2023-05-14T13:06:32.767Z,6.30
2023-05-14T13:07:36.084Z,6.30
2023-05-14T13:08:39.695Z,5.90
2023-05-14T13:09:43.743Z,5.60
2023-05-14T13:10:47.081Z,5.60
2023-05-14T13:11:49.915Z,5.80
2023-05-14T13:12:52.715Z,5.80
2023-05-14T13:13:55.804Z,6.00
2023-05-14T13:14:58.536Z,5.70
2023-05-14T13:16:01.410Z,6.10
2023-05-14T13:17:05.283Z,5.80
2023-05-14T13:18:08.425Z,5.80
2023-05-14T13:19:11.435Z,5.80
2023-05-14T13:20:15.916Z,5.70
2023-05-14T13:21:18.729Z,6.60
2023-05-14T13:22:21.501Z,5.60
2023-05-14T13:23:24.315Z,5.70
2023-05-14T13:24:27.097Z,5.50
2023-05-14T13:25:29.827Z,6.30
2023-05-14T13:26:32.819Z,6.20
2023-05-14T13:27:38.455Z,5.20
2023-05-14T13:28:41.499Z,5.30
2023-05-14T13:29:44.294Z,5.60
2023-05-14T13:31:05.187Z,5.80
2023-05-14T13:32:08.496Z,5.80
2023-05-14T13:33:11.795Z,5.60
2023-05-14T13:34:14.851Z,5.20
2023-05-14T13:35:17.794Z,6.10
2023-05-14T13:36:20.821Z,5.70
2023-05-14T13:37:24.986Z,5.50
2023-05-14T13:38:27.880Z,5.40
2023-05-14T13:39:30.935Z,5.00
2023-05-14T13:40:33.859Z,4.70
2023-05-14T13:41:37.853Z,5.20
2023-05-14T13:42:40.793Z,5.10
2023-05-14T13:43:43.604Z,4.90
2023-05-14T13:44:46.323Z,5.10
2023-05-14T13:45:50.144Z,5.10
2023-05-14T13:46:53.211Z,4.50
2023-05-14T13:47:56.643Z,4.90
2023-05-14T13:48:59.530Z,5.40
2023-05-14T13:50:02.551Z,5.00
2023-05-14T13:51:05.508Z,5.80
2023-05-14T13:52:08.476Z,5.20
2023-05-14T13:53:11.454Z,5.40
2023-05-14T13:54:14.247Z,5.40
2023-05-14T13:55:17.311Z,4.90
2023-05-14T13:56:20.148Z,5.00
2023-05-14T13:57:23.155Z,4.70
2023-05-14T13:58:26.391Z,4.40
2023-05-14T13:59:29.419Z,4.70
2023-05-14T14:00:32.149Z,4.90
2023-05-14T14:01:35.018Z,4.70
2023-05-14T14:02:37.884Z,4.80
2023-05-14T14:03:40.825Z,5.20
2023-05-14T14:04:43.707Z,4.40
2023-05-14T14:05:46.615Z,4.60
2023-05-14T14:06:49.393Z,4.50
2023-05-14T14:07:54.735Z,4.70
2023-05-14T14:09:07.385Z,4.20
2023-05-14T14:10:10.505Z,4.70
2023-05-14T14:11:13.743Z,3.90
2023-05-14T14:12:16.723Z,4.50
2023-05-14T14:13:21.195Z,4.80
2023-05-14T14:14:23.985Z,4.10